This is the latest recevied weather packets stored in our database for station/object KD8TSA. If no packets are shown the sender has not sent any weather packets the latest 10 day(s).
| Time | Temp. | Humidity | Pressure | Rain* | Wind** | Luminosity | Snow |
|---|---|---|---|---|---|---|---|
| 1778130716 | 7.78° C | 84% | 1013.7 hPa | 0 mm | - | 0 W/m² | - |
| 1778130413 | 7.78° C | 85% | 1013.6 hPa | 0 mm | - | 0 W/m² | - |
| 1778130109 | 7.78° C | 85% | 1013.7 hPa | 0 mm | - | 0 W/m² | - |
| 1778129806 | 7.78° C | 85% | 1013.8 hPa | 0 mm | - | 0 W/m² | - |
| 1778129503 | 7.78° C | 85% | 1013.7 hPa | 0 mm | - | 0 W/m² | - |
| 1778129200 | 7.78° C | 85% | 1013.6 hPa | 0 mm | - | 0 W/m² | - |
| 1778128897 | 7.78° C | 84% | 1013.8 hPa | 0 mm | - | 0 W/m² | - |
| 1778128593 | 7.78° C | 84% | 1013.9 hPa | 0 mm | - | 0 W/m² | - |
| 1778128285 | 8.33° C | 84% | 1013.8 hPa | 0 mm | - | 0 W/m² | - |
| 1778127981 | 8.33° C | 84% | 1013.7 hPa | 0 mm | - | 0 W/m² | - |
| 1778127676 | 8.33° C | 83% | 1013.6 hPa | 0 mm | - | 0 W/m² | - |
| 1778127373 | 8.33° C | 83% | 1013.7 hPa | 0 mm | - | 0 W/m² | - |
| 1778127070 | 8.33° C | 83% | 1013.7 hPa | 0 mm | - | 0 W/m² | - |
| 1778126766 | 8.33° C | 83% | 1013.5 hPa | 0 mm | - | 0 W/m² | - |
| 1778126158 | 8.33° C | 83% | 1013.8 hPa | 0 mm | - | 0 W/m² | - |
| 1778124948 | 8.33° C | 83% | 1013.8 hPa | 0 mm | - | 0 W/m² | - |
| 1778124644 | 8.33° C | 83% | 1013.5 hPa | 0 mm | - | 0 W/m² | - |
| 1778107047 | 13.89° C | 67% | 1012.3 hPa | 0 mm | - | 167 W/m² | - |
| 1778106440 | 13.33° C | 67% | 1012.7 hPa | 0 mm | - | 170 W/m² | - |
| 1778101889 | 14.44° C | 66% | 1011.7 hPa | 0 mm | - | 198 W/m² | - |
| 1778101581 | 14.44° C | 65% | 1011.6 hPa | 0 mm | - | 188 W/m² | - |
| 1778099768 | 15° C | 63% | 1011.6 hPa | 0 mm | - | 298 W/m² | - |
| 1778098857 | 15° C | 62% | 1011.9 hPa | 0 mm | - | 356 W/m² | - |
| 1778098251 | 14.44° C | 64% | 1012 hPa | 0 mm | - | 321 W/m² | - |
| 1778096129 | 15° C | 63% | 1011.7 hPa | 0 mm | - | 373 W/m² | - |
* Rain latest hour (hover to see other rain measurements)
** Current wind speed in m/s (hover to see current wind gust speed)